• Join FlightAware (Why Join?)
  • Login
  • US Flag 
12:40AM EDT


 

Airport Tracker/Info


-or-


 

Live Flight TrackerFlight Track Log ✈ N510SR ✈ 17-Sep-2013 ✈ KSFO - KLAX

Flight Track Log - Related Links

Times and Time Zones

All times are in EDT time to prevent confusion due to time zone crossing. See the N510SR flight status page for this flight to view local times or setup timezone preferences in your user account.

Time Position Orientation Groundspeed Altitude Reporting Facility
EDT Latitude Longitude Course Direction KTS MPH feet Rate Location/Type
04:00PM 37.6500 -122.4333 228° Southwest 205 236 3,000  Level Northern Cal TRACON
04:01PM 37.6667 -122.5167 284° West 246 283 4,900 2,520 Climbing Northern Cal TRACON
04:02PM 37.6436 -122.5453 225° Southwest 248 285 6,800 3,660 Climbing Oakland Center
04:03PM 37.5653 -122.5297 171° South 291 335 10,600 3,000 Climbing Oakland Center
04:04PM 37.4731 -122.4922 162° South 347 399 13,000 2,760 Climbing Oakland Center
04:05PM 37.3811 -122.4236 149° Southeast 388 447 16,300 2,760 Climbing Oakland Center
04:06PM 37.1656 -121.8574 228° Southwest  Level Estimated
04:06PM 37.2875 -122.2906 131° Southeast 426 490 18,700  Level Oakland Center
04:07PM 37.2056 -122.1694 130° Southeast 454 522 20,800 2,040 Climbing Oakland Center
04:08PM 37.1189 -122.0447 131° Southeast 473 544 22,900 1,860 Climbing Oakland Center
04:09PM 37.0317 -121.9194 131° Southeast 478 550 24,700 1,740 Climbing Oakland Center
04:10PM 36.9428 -121.7922 131° Southeast 485 558 26,500 1,680 Climbing Oakland Center
04:11PM 36.8531 -121.6667 132° Southeast 485 558 28,200 1,200 Climbing Oakland Center
04:12PM 36.7458 -121.5167 132° Southeast 495 570 29,000 360 Climbing Oakland Center
04:13PM 36.6500 -121.3789 131° Southeast 519 597 29,000  Level Oakland Center
04:14PM 36.5542 -121.2419 131° Southeast 525 604 29,000  Level Oakland Center
04:15PM 36.4592 -121.1064 131° Southeast 522 601 29,000  Level Oakland Center
04:16PM 36.3639 -120.9728 132° Southeast 518 596 29,000  Level Oakland Center
04:17PM 36.2672 -120.8367 131° Southeast 524 603 29,000  Level Oakland Center
04:18PM 36.1711 -120.7003 131° Southeast 524 603 29,000  Level Oakland Center
04:19PM 36.0742 -120.5667 132° Southeast 522 601 29,000  Level Oakland Center
04:20PM 35.9772 -120.4322 132° Southeast 523 602 29,000  Level Oakland Center
04:21PM 35.8597 -120.2703 132° Southeast 525 604 29,000  Level Oakland Center
04:22PM 35.7633 -120.1383 132° Southeast 519 597 29,000  Level Oakland Center
04:23PM 35.6633 -120.0117 134° Southeast 512 589 29,000  Level Oakland Center
04:24PM 35.5775 -119.9203 139° Southeast 508 585 29,000  Level Los Angeles Center
04:25PM 35.4619 -119.8211 145° Southeast 503 579 29,000  Level Los Angeles Center
04:26PM 35.3469 -119.7219 145° Southeast 502 578 29,000  Level Los Angeles Center
04:27PM 35.2072 -119.6025 145° Southeast 506 582 29,000 -600 Level Los Angeles Center
04:28PM 35.0919 -119.5033 145° Southeast 506 582 27,800 -1,320 Descending Los Angeles Center
04:29PM 34.9817 -119.4097 145° Southeast 490 564 26,300 -1,500 Descending Los Angeles Center
04:30PM 34.8719 -119.3161 145° Southeast 484 557 24,800 -1,500 Descending Los Angeles Center
04:31PM 34.7644 -119.2261 145° Southeast 473 544 23,300 -1,500 Descending Los Angeles Center
04:32PM 34.6597 -119.1350 144° Southeast 464 534 21,800 -1,620 Descending Los Angeles Center
04:33PM 34.5358 -119.0314 145° Southeast 455 524 20,000 -1,620 Descending Los Angeles Center
04:35PM 34.4342 -118.9461 145° Southeast 445 512 18,500 -2,040 Descending Los Angeles Center
04:36PM 34.3344 -118.8767 150° Southeast 414 476 15,900 -2,400 Descending Los Angeles Center
04:37PM 34.2303 -118.8333 161° South 398 458 13,600 -2,280 Descending Los Angeles Center
04:38PM 34.1300 -118.7981 164° South 379 436 11,300 -1,740 Descending Los Angeles Center
04:39PM 34.0408 -118.7147 142° Southeast 376 433 10,100 -780 Descending Los Angeles Center
04:40PM 34.0231 -118.5967 100° East 335 386 9,800 -1,020 Descending Los Angeles Center
04:41PM 34.0164 -118.4986 95° East 297 342 8,000 -1,620 Descending Los Angeles Center
04:42PM 34.0253 -118.4164 83° East 248 285 6,500 -1,620 Descending Los Angeles Center
04:43PM 34.0339 -118.3358 83° East 242 278 4,700 -1,380 Descending Los Angeles Center
04:44PM 34.0197 -118.2700 105° East 230 265 3,700 -1,080 Descending Los Angeles Center
04:45PM 33.9650 -118.3039 207° Southwest 204 235 2,300 -1,140 Descending Los Angeles Center
04:46PM 33.9569 -118.3692 262° West 177 204 1,200 -900 Descending Los Angeles Center
04:47PM 33.9519 -118.4117 262° West 165 190 500 -720 Descending Los Angeles Center
04:49PM 33.9425 -118.4081 228° Southwest  Level Estimated
04:56PM 33.9425 -118.4081 228° Southwest  Level Estimated